createdAt,value
2022-10-21T00:00:38.710Z,12.38
2022-10-21T00:03:05.122Z,12.38
2022-10-21T00:05:31.546Z,12.38
2022-10-21T00:07:58.327Z,12.38
2022-10-21T00:10:24.809Z,12.38
2022-10-21T00:12:51.278Z,12.37
2022-10-21T00:15:17.711Z,12.38
2022-10-21T00:17:44.292Z,12.37
2022-10-21T00:20:12.982Z,12.38
2022-10-21T00:22:40.216Z,12.39
2022-10-21T00:25:07.323Z,12.41
2022-10-21T00:27:33.992Z,12.41
2022-10-21T00:30:00.446Z,12.45
2022-10-21T00:32:26.865Z,12.46
2022-10-21T00:34:53.360Z,12.47
2022-10-21T00:37:19.949Z,12.48
2022-10-21T00:39:46.514Z,12.47
2022-10-21T00:42:22.306Z,12.52
2022-10-21T00:45:06.591Z,12.54
2022-10-21T00:50:37.445Z,12.57
2022-10-21T00:53:09.608Z,12.58
2022-10-21T00:55:39.505Z,12.60
2022-10-21T00:58:06.176Z,12.60
2022-10-21T01:00:33.161Z,12.60
2022-10-21T01:02:59.985Z,12.61
2022-10-21T01:05:26.995Z,12.58
2022-10-21T01:07:53.548Z,12.60
2022-10-21T01:10:19.959Z,12.62
2022-10-21T01:13:07.712Z,12.66
2022-10-21T01:15:56.346Z,12.65
2022-10-21T01:18:25.359Z,12.66
2022-10-21T01:21:16.401Z,12.69
2022-10-21T01:24:10.429Z,12.73
2022-10-21T01:26:55.726Z,12.74
2022-10-21T01:29:40.966Z,12.75
2022-10-21T01:32:22.972Z,12.78
2022-10-21T01:35:08.007Z,12.80
2022-10-21T01:37:49.802Z,12.83
2022-10-21T01:40:41.540Z,12.84
2022-10-21T01:43:39.992Z,12.88
2022-10-21T01:46:18.869Z,12.90
2022-10-21T01:48:50.882Z,12.90
2022-10-21T01:51:19.071Z,12.94
2022-10-21T01:53:54.599Z,12.97
2022-10-21T01:56:22.070Z,12.96
2022-10-21T01:58:49.673Z,13.03
2022-10-21T02:01:17.839Z,13.03
2022-10-21T02:03:49.174Z,13.05
2022-10-21T02:06:15.609Z,13.06
2022-10-21T02:08:42.823Z,13.05
2022-10-21T02:11:11.698Z,13.05
2022-10-21T02:13:48.812Z,13.08
2022-10-21T02:16:18.362Z,13.10
2022-10-21T02:18:44.762Z,13.13
2022-10-21T02:21:19.511Z,13.15
2022-10-21T02:23:52.496Z,13.19
2022-10-21T02:26:20.441Z,13.23
2022-10-21T02:28:47.678Z,13.28
2022-10-21T02:31:22.737Z,13.34
2022-10-21T02:34:17.864Z,13.40
2022-10-21T02:37:16.474Z,13.42
2022-10-21T02:39:58.921Z,13.48
2022-10-21T02:42:34.998Z,13.55
2022-10-21T02:45:02.491Z,13.61
2022-10-21T02:47:29.684Z,13.69
2022-10-21T02:49:56.103Z,13.74
2022-10-21T02:52:22.525Z,13.80
2022-10-21T02:54:48.874Z,13.84
2022-10-21T02:57:15.280Z,13.88
2022-10-21T02:59:41.659Z,13.88
2022-10-21T03:02:08.036Z,13.88
2022-10-21T03:04:34.466Z,13.90
2022-10-21T03:07:00.863Z,13.93
2022-10-21T03:09:27.229Z,13.91
2022-10-21T03:11:53.589Z,13.78
2022-10-21T03:14:19.954Z,13.64
2022-10-21T03:16:46.335Z,13.53
2022-10-21T03:19:12.746Z,13.48
2022-10-21T03:21:39.180Z,13.41
2022-10-21T03:24:11.003Z,13.33
2022-10-21T03:26:51.707Z,13.21
2022-10-21T03:29:18.064Z,13.10
2022-10-21T03:31:44.425Z,13.05
2022-10-21T03:34:10.808Z,13.00
2022-10-21T03:36:37.213Z,12.96
2022-10-21T03:39:03.737Z,12.94
2022-10-21T03:41:30.129Z,12.93
2022-10-21T03:43:56.505Z,12.90
2022-10-21T03:46:22.931Z,12.89
2022-10-21T03:48:49.320Z,12.93
2022-10-21T03:51:15.705Z,12.95
2022-10-21T03:53:43.560Z,12.95
2022-10-21T03:56:10.716Z,12.98
2022-10-21T03:58:37.116Z,13.00
2022-10-21T04:01:03.700Z,13.03
2022-10-21T04:03:30.416Z,13.06
2022-10-21T04:05:56.799Z,13.08
2022-10-21T04:08:23.205Z,13.09
2022-10-21T04:10:49.611Z,13.06
2022-10-21T04:13:16.121Z,12.93
2022-10-21T04:15:42.581Z,13.04
2022-10-21T04:18:08.941Z,13.03
2022-10-21T04:20:35.346Z,13.01
2022-10-21T04:23:02.084Z,12.94
2022-10-21T04:25:28.455Z,12.89
2022-10-21T04:27:54.818Z,12.83
2022-10-21T04:30:21.751Z,12.79
2022-10-21T04:32:48.295Z,12.78
2022-10-21T04:35:14.739Z,12.75
2022-10-21T04:37:41.157Z,12.71
2022-10-21T04:40:08.422Z,12.70
2022-10-21T04:42:34.869Z,12.68
2022-10-21T04:45:01.558Z,12.69
2022-10-21T04:47:27.949Z,12.69
2022-10-21T04:49:54.436Z,12.68
2022-10-21T04:52:20.806Z,12.69
2022-10-21T04:54:47.157Z,12.70
2022-10-21T04:57:14.055Z,12.70
2022-10-21T04:59:40.429Z,12.74
2022-10-21T05:02:06.794Z,12.75
2022-10-21T05:04:33.222Z,12.78
2022-10-21T05:06:59.576Z,12.79
2022-10-21T05:09:25.963Z,12.82
2022-10-21T05:11:52.358Z,12.85
2022-10-21T05:14:21.775Z,12.89
2022-10-21T05:16:49.512Z,12.95
2022-10-21T05:19:15.903Z,13.00
2022-10-21T05:21:42.290Z,13.06
2022-10-21T05:24:08.849Z,13.11
2022-10-21T05:26:35.220Z,13.15
2022-10-21T05:29:01.599Z,13.18
2022-10-21T05:31:28.047Z,13.23
2022-10-21T05:33:54.436Z,13.27
2022-10-21T05:36:23.887Z,13.33
2022-10-21T05:38:50.627Z,13.39
2022-10-21T05:41:17.100Z,13.45
2022-10-21T05:43:43.558Z,13.52
2022-10-21T05:46:10.126Z,13.57
2022-10-21T05:48:37.647Z,13.59
2022-10-21T05:51:05.160Z,13.60
2022-10-21T05:53:31.618Z,13.58
2022-10-21T05:56:04.300Z,13.59
2022-10-21T05:58:32.509Z,13.58
2022-10-21T06:00:59.382Z,13.55
2022-10-21T06:03:30.017Z,13.57
2022-10-21T06:06:01.600Z,13.58
2022-10-21T06:08:29.470Z,13.58
2022-10-21T06:11:08.312Z,13.63
2022-10-21T06:13:35.554Z,13.61
2022-10-21T06:16:02.722Z,13.60
2022-10-21T06:18:29.336Z,13.61
2022-10-21T06:20:55.824Z,13.60
2022-10-21T06:23:22.307Z,13.58
2022-10-21T06:26:15.522Z,13.65
2022-10-21T06:28:43.457Z,13.67
2022-10-21T06:31:13.692Z,13.70
2022-10-21T06:33:40.420Z,13.73
2022-10-21T06:36:07.182Z,13.75
2022-10-21T06:38:33.737Z,13.79
2022-10-21T06:41:09.172Z,13.80
2022-10-21T06:43:39.070Z,13.81
2022-10-21T06:46:07.766Z,13.82
2022-10-21T06:48:34.591Z,13.83
2022-10-21T06:51:07.109Z,13.85
2022-10-21T06:53:36.601Z,13.86
2022-10-21T06:56:09.657Z,13.85
2022-10-21T06:58:37.680Z,13.77
2022-10-21T07:01:21.489Z,13.70
2022-10-21T07:03:57.993Z,13.64
2022-10-21T07:06:24.915Z,13.63
2022-10-21T07:08:58.255Z,13.63
2022-10-21T07:11:25.954Z,13.63
2022-10-21T07:13:52.379Z,13.63
2022-10-21T07:16:25.126Z,13.62
2022-10-21T07:18:52.135Z,13.60
2022-10-21T07:21:20.483Z,13.60
2022-10-21T07:23:49.135Z,13.60
2022-10-21T07:26:15.739Z,13.60
2022-10-21T07:28:46.688Z,13.65
2022-10-21T07:31:22.232Z,13.67
2022-10-21T07:33:48.980Z,13.66
2022-10-21T07:36:24.390Z,13.65
2022-10-21T07:38:52.286Z,13.66
2022-10-21T07:41:22.093Z,13.69
2022-10-21T07:43:49.038Z,13.71
2022-10-21T07:46:16.562Z,13.74
2022-10-21T07:48:43.149Z,13.75
2022-10-21T07:51:12.812Z,13.78
2022-10-21T07:53:39.870Z,13.80
2022-10-21T07:56:18.393Z,13.79
2022-10-21T07:58:46.873Z,13.87
2022-10-21T08:01:15.447Z,13.81
2022-10-21T08:03:42.624Z,13.91
2022-10-21T08:06:11.548Z,13.98
2022-10-21T08:08:39.345Z,14.03
2022-10-21T08:11:06.645Z,14.08
2022-10-21T08:13:34.433Z,14.15
2022-10-21T08:16:01.990Z,14.22
2022-10-21T08:18:29.519Z,14.27
2022-10-21T08:20:55.963Z,14.32
2022-10-21T08:23:23.973Z,14.34
2022-10-21T08:25:52.990Z,14.36
2022-10-21T08:28:20.357Z,14.36
2022-10-21T08:30:46.809Z,14.37
2022-10-21T08:33:14.101Z,14.39
2022-10-21T08:35:42.071Z,14.42
2022-10-21T08:38:08.574Z,14.44
2022-10-21T08:40:38.370Z,14.50
2022-10-21T08:43:19.853Z,14.54
2022-10-21T08:45:54.701Z,14.60
2022-10-21T08:48:26.114Z,14.63
2022-10-21T08:50:56.190Z,14.71
2022-10-21T08:53:39.081Z,14.78
2022-10-21T08:56:13.476Z,14.82
2022-10-21T08:58:46.788Z,14.85
2022-10-21T09:01:29.289Z,14.93
2022-10-21T09:04:10.271Z,14.96
2022-10-21T09:07:06.014Z,14.99
2022-10-21T09:09:51.793Z,15.01
2022-10-21T09:12:41.330Z,15.03
2022-10-21T09:15:35.921Z,15.05
2022-10-21T09:18:37.016Z,15.07
2022-10-21T09:21:23.294Z,15.07
2022-10-21T09:24:12.847Z,15.09
2022-10-21T09:26:47.164Z,15.07
2022-10-21T09:29:16.251Z,15.07
2022-10-21T09:31:43.892Z,15.07
2022-10-21T09:34:52.015Z,15.08
2022-10-21T09:37:34.743Z,15.09
2022-10-21T09:40:24.081Z,15.08
2022-10-21T09:42:53.031Z,15.08
2022-10-21T09:45:26.653Z,15.09
2022-10-21T09:48:03.504Z,15.11
2022-10-21T09:53:14.508Z,15.04
2022-10-21T09:55:41.492Z,15.05
2022-10-21T09:58:07.926Z,15.03
2022-10-21T10:00:49.997Z,15.02
2022-10-21T10:03:43.701Z,15.04
2022-10-21T10:06:10.206Z,15.12
2022-10-21T10:08:47.508Z,15.30
2022-10-21T10:11:17.521Z,15.41
2022-10-21T10:13:45.515Z,15.51
2022-10-21T10:16:22.872Z,15.57
2022-10-21T10:18:51.825Z,15.65
2022-10-21T10:21:20.783Z,15.74
2022-10-21T10:23:56.042Z,15.80
2022-10-21T10:26:25.946Z,15.88
2022-10-21T10:28:56.644Z,15.93
2022-10-21T10:31:30.433Z,15.92
2022-10-21T10:34:00.837Z,16.08
2022-10-21T10:36:34.778Z,16.15
2022-10-21T10:39:03.828Z,16.18
2022-10-21T10:41:37.143Z,16.24
2022-10-21T10:44:10.749Z,16.31
2022-10-21T10:46:38.751Z,16.28
2022-10-21T10:49:19.034Z,16.36
2022-10-21T10:51:46.878Z,16.39
2022-10-21T10:54:40.476Z,16.43
2022-10-21T10:57:20.108Z,16.47
2022-10-21T11:00:01.457Z,16.49
2022-10-21T11:02:36.897Z,16.55
2022-10-21T11:05:08.910Z,16.57
2022-10-21T11:07:44.440Z,16.61
2022-10-21T11:10:19.716Z,16.64
2022-10-21T11:12:46.095Z,16.65
2022-10-21T11:15:15.013Z,16.67
2022-10-21T11:17:50.973Z,16.71
2022-10-21T11:20:30.321Z,16.75
2022-10-21T11:23:15.649Z,16.78
2022-10-21T11:26:02.993Z,16.80
2022-10-21T11:28:44.290Z,16.79
2022-10-21T11:31:21.561Z,16.74
2022-10-21T11:34:13.514Z,16.70
2022-10-21T11:37:00.864Z,16.65
2022-10-21T11:39:54.576Z,16.62
2022-10-21T11:42:37.962Z,16.57
2022-10-21T11:45:28.709Z,16.53
2022-10-21T11:47:58.092Z,16.49
2022-10-21T11:50:49.096Z,16.48
2022-10-21T11:53:40.957Z,16.50
2022-10-21T11:56:27.575Z,16.52
2022-10-21T11:59:07.498Z,16.58
2022-10-21T12:01:51.080Z,16.69
2022-10-21T12:04:53.954Z,16.88
2022-10-21T12:07:56.363Z,17.00
2022-10-21T12:10:30.292Z,17.13
2022-10-21T12:13:02.347Z,17.21
2022-10-21T12:15:36.458Z,17.32
2022-10-21T12:18:04.972Z,17.33
2022-10-21T12:20:32.507Z,17.34
2022-10-21T12:23:03.472Z,17.35
2022-10-21T12:25:42.462Z,17.42
2022-10-21T12:28:18.496Z,17.41
2022-10-21T12:30:55.399Z,17.42
2022-10-21T12:33:37.176Z,17.40
2022-10-21T12:36:22.514Z,17.30
2022-10-21T12:38:52.183Z,17.28
2022-10-21T12:41:24.581Z,17.32
2022-10-21T12:44:03.220Z,17.32
2022-10-21T12:46:51.807Z,17.31
2022-10-21T12:49:22.488Z,17.25
2022-10-21T12:52:21.190Z,17.32
2022-10-21T12:55:02.682Z,17.30
2022-10-21T12:57:33.256Z,17.27
2022-10-21T13:00:27.991Z,17.27
2022-10-21T13:03:20.155Z,17.25
2022-10-21T13:05:46.501Z,17.26
2022-10-21T13:08:29.193Z,17.28
2022-10-21T13:11:04.753Z,17.30
2022-10-21T13:13:44.997Z,17.26
2022-10-21T13:16:20.698Z,17.22
2022-10-21T13:19:00.758Z,17.21
2022-10-21T13:21:29.851Z,17.25
2022-10-21T13:24:05.606Z,17.36
2022-10-21T13:26:32.590Z,17.48
2022-10-21T13:29:17.688Z,17.71
2022-10-21T13:31:44.185Z,17.72
2022-10-21T13:34:29.154Z,17.66
2022-10-21T13:36:56.688Z,17.56
2022-10-21T13:39:31.270Z,17.57
2022-10-21T13:42:07.769Z,17.67
2022-10-21T13:44:37.984Z,17.78
2022-10-21T13:47:30.960Z,17.90
2022-10-21T13:50:05.401Z,17.95
2022-10-21T13:52:32.058Z,18.04
2022-10-21T13:54:59.921Z,18.11
2022-10-21T13:57:34.216Z,18.06
2022-10-21T14:00:07.217Z,17.98
2022-10-21T14:02:33.889Z,17.92
2022-10-21T14:05:00.875Z,17.87
2022-10-21T14:07:27.988Z,17.82
2022-10-21T14:09:57.586Z,17.78
2022-10-21T14:12:41.630Z,17.74
2022-10-21T14:15:18.100Z,17.67
2022-10-21T14:17:51.966Z,17.57
2022-10-21T14:20:27.862Z,17.52
2022-10-21T14:22:55.177Z,17.50
2022-10-21T14:25:21.919Z,17.45
2022-10-21T14:27:49.529Z,17.42
2022-10-21T14:30:28.306Z,17.41
2022-10-21T14:32:58.172Z,17.37
2022-10-21T14:35:28.086Z,17.35
2022-10-21T14:37:59.923Z,17.33
2022-10-21T14:40:40.754Z,17.27
2022-10-21T14:43:20.328Z,17.23
2022-10-21T14:45:49.419Z,17.17
2022-10-21T14:48:28.713Z,17.15
2022-10-21T14:51:01.782Z,17.08
2022-10-21T14:53:34.621Z,17.02
2022-10-21T14:56:04.269Z,17.01
2022-10-21T14:58:36.575Z,16.99
2022-10-21T15:01:14.119Z,16.94
2022-10-21T15:03:49.353Z,16.91
2022-10-21T15:06:23.674Z,16.90
2022-10-21T15:08:56.514Z,16.87
2022-10-21T15:11:25.847Z,16.85
2022-10-21T15:14:04.393Z,16.86
2022-10-21T15:16:31.876Z,16.81
2022-10-21T15:19:05.540Z,16.78
2022-10-21T15:21:45.113Z,16.75
2022-10-21T15:24:20.159Z,16.73
2022-10-21T15:26:49.702Z,16.68
2022-10-21T15:29:27.323Z,16.66
2022-10-21T15:31:56.661Z,16.64
2022-10-21T15:34:23.173Z,16.62
2022-10-21T15:36:49.579Z,16.60
2022-10-21T15:39:16.056Z,16.56
2022-10-21T15:41:42.668Z,16.51
2022-10-21T15:44:21.078Z,16.46
2022-10-21T15:46:50.238Z,16.40
2022-10-21T15:49:22.416Z,16.35
2022-10-21T15:51:50.174Z,16.29
2022-10-21T15:54:18.283Z,16.23
2022-10-21T15:56:47.253Z,16.17
2022-10-21T15:59:22.362Z,16.12
2022-10-21T16:01:50.092Z,16.05
2022-10-21T16:04:17.213Z,16.01
2022-10-21T16:06:48.244Z,15.92
2022-10-21T16:09:20.557Z,15.90
2022-10-21T16:12:01.437Z,15.86
2022-10-21T16:14:30.104Z,15.80
2022-10-21T16:17:00.858Z,15.76
2022-10-21T16:19:28.521Z,15.69
2022-10-21T16:21:56.052Z,15.67
2022-10-21T16:24:22.469Z,15.68
2022-10-21T16:26:49.794Z,15.65
2022-10-21T16:29:19.899Z,15.63
2022-10-21T16:31:46.845Z,15.61
2022-10-21T16:34:13.270Z,15.58
2022-10-21T16:36:39.794Z,15.58
2022-10-21T16:39:25.214Z,15.56
2022-10-21T16:41:51.920Z,15.53
2022-10-21T16:44:18.743Z,15.52
2022-10-21T16:46:55.457Z,15.53
2022-10-21T16:49:27.808Z,15.49
2022-10-21T16:51:55.063Z,15.48
2022-10-21T16:54:22.969Z,15.46
2022-10-21T16:56:52.129Z,15.45
2022-10-21T16:59:21.266Z,15.44
2022-10-21T17:01:47.628Z,15.44
2022-10-21T17:04:14.422Z,15.43
2022-10-21T17:06:41.126Z,15.41
2022-10-21T17:09:07.577Z,15.38
2022-10-21T17:11:36.765Z,15.35
2022-10-21T17:14:06.202Z,15.33
2022-10-21T17:16:32.646Z,15.33
2022-10-21T17:18:59.018Z,15.34
2022-10-21T17:21:31.304Z,15.32
2022-10-21T17:23:59.516Z,15.31
2022-10-21T17:26:26.002Z,15.28
2022-10-21T17:28:53.623Z,15.27
2022-10-21T17:31:22.691Z,15.25
2022-10-21T17:33:51.039Z,15.24
2022-10-21T17:36:18.152Z,15.21
2022-10-21T17:38:44.744Z,15.18
2022-10-21T17:41:12.931Z,15.16
2022-10-21T17:43:39.422Z,15.15
2022-10-21T17:46:06.107Z,15.13
2022-10-21T17:48:33.195Z,15.09
2022-10-21T17:51:01.859Z,15.07
2022-10-21T17:53:30.320Z,15.08
2022-10-21T17:56:01.720Z,15.08
2022-10-21T17:58:28.996Z,15.08
2022-10-21T18:00:58.989Z,15.09
2022-10-21T18:03:27.562Z,15.09
2022-10-21T18:05:55.983Z,15.07
2022-10-21T18:08:23.731Z,15.08
2022-10-21T18:10:58.202Z,15.09
2022-10-21T18:13:27.125Z,15.09
2022-10-21T18:15:55.792Z,15.08
2022-10-21T18:18:23.195Z,15.11
2022-10-21T18:20:50.450Z,15.10
2022-10-21T18:23:17.454Z,15.10
2022-10-21T18:25:43.981Z,15.11
2022-10-21T18:28:10.492Z,15.10
2022-10-21T18:30:42.756Z,15.11
2022-10-21T18:33:09.515Z,15.11
2022-10-21T18:35:36.195Z,15.10
2022-10-21T18:38:02.659Z,15.05
2022-10-21T18:40:29.467Z,15.03
2022-10-21T18:42:56.003Z,14.98
2022-10-21T18:45:22.698Z,14.93
2022-10-21T18:47:51.122Z,14.90
2022-10-21T18:50:17.642Z,14.86
2022-10-21T18:52:44.028Z,14.82
2022-10-21T18:55:10.406Z,14.81
2022-10-21T18:57:36.966Z,14.80
2022-10-21T19:00:04.966Z,14.76
2022-10-21T19:02:31.333Z,14.75
2022-10-21T19:04:59.745Z,14.74
2022-10-21T19:07:28.641Z,14.73
2022-10-21T19:09:55.002Z,14.74
2022-10-21T19:12:23.545Z,14.74
2022-10-21T19:14:50.352Z,14.73
2022-10-21T19:17:16.926Z,14.72
2022-10-21T19:19:43.345Z,14.72
2022-10-21T19:22:09.805Z,14.70
2022-10-21T19:24:36.198Z,14.70
2022-10-21T19:27:02.608Z,14.70
2022-10-21T19:29:29.134Z,14.70
2022-10-21T19:31:56.810Z,14.67
2022-10-21T19:34:26.669Z,14.68
2022-10-21T19:36:53.053Z,14.71
2022-10-21T19:39:19.955Z,14.73
2022-10-21T19:41:46.539Z,14.76
2022-10-21T19:44:13.441Z,14.81
2022-10-21T19:46:40.019Z,14.88
2022-10-21T19:49:08.616Z,14.94
2022-10-21T19:51:36.570Z,14.97
2022-10-21T19:54:05.189Z,15.00
2022-10-21T19:56:34.030Z,15.02
2022-10-21T19:59:02.728Z,15.05
2022-10-21T20:01:30.184Z,15.08
2022-10-21T20:03:56.775Z,15.10
2022-10-21T20:06:24.703Z,15.10
2022-10-21T20:08:53.585Z,15.12
2022-10-21T20:11:21.725Z,15.11
2022-10-21T20:13:50.152Z,15.04
2022-10-21T20:16:22.609Z,15.10
2022-10-21T20:18:49.551Z,15.09
2022-10-21T20:21:16.228Z,15.07
2022-10-21T20:23:42.689Z,15.11
2022-10-21T20:26:09.327Z,15.09
2022-10-21T20:28:36.230Z,15.10
2022-10-21T20:31:06.443Z,15.08
2022-10-21T20:33:35.391Z,15.11
2022-10-21T20:36:07.352Z,15.11
2022-10-21T20:38:34.002Z,15.12
2022-10-21T20:41:02.949Z,15.13
2022-10-21T20:43:29.822Z,15.12
2022-10-21T20:45:56.183Z,15.13
2022-10-21T20:48:22.585Z,15.13
2022-10-21T20:50:48.957Z,15.12
2022-10-21T20:53:15.308Z,15.12
2022-10-21T20:55:42.781Z,15.14
2022-10-21T20:58:09.150Z,15.16
2022-10-21T21:00:37.211Z,15.18
2022-10-21T21:03:03.713Z,15.19
2022-10-21T21:05:30.067Z,15.21
2022-10-21T21:07:56.421Z,15.21
2022-10-21T21:10:22.849Z,15.21
2022-10-21T21:12:49.250Z,15.22
2022-10-21T21:15:15.693Z,15.19
2022-10-21T21:17:42.030Z,15.22
2022-10-21T21:20:09.018Z,15.20
2022-10-21T21:22:36.939Z,15.19
2022-10-21T21:25:04.198Z,15.17
2022-10-21T21:27:30.579Z,15.15
2022-10-21T21:29:57.011Z,15.12
2022-10-21T21:32:23.438Z,15.08
2022-10-21T21:34:54.895Z,15.06
2022-10-21T21:37:22.783Z,15.04
2022-10-21T21:39:49.254Z,15.04
2022-10-21T21:42:15.823Z,15.04
2022-10-21T21:44:42.194Z,15.04
2022-10-21T21:47:08.630Z,15.04
2022-10-21T21:49:35.016Z,15.02
2022-10-21T21:52:01.409Z,15.00
2022-10-21T21:54:27.762Z,14.98
2022-10-21T21:57:00.635Z,14.95
2022-10-21T21:59:40.483Z,14.91
2022-10-21T22:02:06.843Z,14.87
2022-10-21T22:04:34.154Z,14.85
2022-10-21T22:07:02.861Z,14.85
2022-10-21T22:09:29.529Z,14.82
2022-10-21T22:11:55.885Z,14.80
2022-10-21T22:14:22.224Z,14.78
2022-10-21T22:16:48.600Z,14.77
2022-10-21T22:19:14.952Z,14.76
2022-10-21T22:21:41.298Z,14.74
2022-10-21T22:24:07.647Z,14.73
2022-10-21T22:26:34.027Z,14.72
2022-10-21T22:29:00.381Z,14.70
2022-10-21T22:31:29.512Z,14.70
2022-10-21T22:33:58.225Z,14.67
2022-10-21T22:36:24.609Z,14.67
2022-10-21T22:38:50.945Z,14.65
2022-10-21T22:41:17.311Z,14.64
2022-10-21T22:43:43.798Z,14.50
2022-10-21T22:46:22.220Z,14.60
2022-10-21T22:48:56.946Z,14.58
2022-10-21T22:51:23.444Z,14.53
2022-10-21T22:53:55.174Z,14.52
2022-10-21T22:56:24.556Z,14.52
2022-10-21T22:58:50.990Z,14.54
2022-10-21T23:01:20.956Z,14.49
2022-10-21T23:03:47.369Z,14.50
2022-10-21T23:06:13.892Z,14.48
2022-10-21T23:08:40.348Z,14.47
2022-10-21T23:11:06.722Z,14.47
2022-10-21T23:13:33.307Z,14.48
2022-10-21T23:15:59.676Z,14.48
2022-10-21T23:18:26.193Z,14.44
2022-10-21T23:20:53.798Z,14.44
2022-10-21T23:23:20.281Z,14.41
2022-10-21T23:25:46.642Z,14.39
2022-10-21T23:28:13.607Z,14.38
2022-10-21T23:30:40.640Z,14.37
2022-10-21T23:33:06.994Z,14.36
2022-10-21T23:35:33.349Z,14.34
2022-10-21T23:37:59.772Z,14.30
2022-10-21T23:40:26.812Z,14.22
2022-10-21T23:42:53.619Z,14.13
2022-10-21T23:45:20.098Z,14.03
2022-10-21T23:47:46.629Z,13.95
2022-10-21T23:50:13.475Z,13.87
2022-10-21T23:52:39.935Z,13.79
2022-10-21T23:55:07.650Z,13.72
2022-10-21T23:57:34.253Z,13.65
